WU Station Historical Data
 
Daily Summary for August 23, 2017 Units:  English    Metric   Both
« Previous Day
Next Day »
Daily Weekly Monthly Yearly Custom
  Current: High: Low: Average:
Temperature: 80.0 °F 80.0 °F 74.2 °F 76 °F
Dew Point: 73.6 °F 73.6 °F 70.1 °F 71.7 °F
Humidity: 81 % 88 % 80 % 87 %
Wind Speed: 2.0 mph 2.0 mph 0.0 mph 0.1 mph
Wind Gust: 4.0 mph 4.0 mph - -
Wind:North - - SSW
Pressure: 29.99 in 30.03 in 29.96 in -
Precipitation: 0.00 in      
Historical Graphs
 
 
Tabular Data for August 23, 2017
Time Temperature Dew Point Pressure Wind Wind Speed Wind Gust Humidity Rainfall Rate (Hourly) solar Conditions
00:03 77.9 °F 73.4 °F 30.02 in Calm     86 % 0.00 in 0 W/m2
00:08 77.8 °F 73.3 °F 30.02 in Calm     86 % 0.00 in 0 W/m2
00:13 77.8 °F 73.3 °F 30.02 in Calm     86 % 0.00 in 0 W/m2
00:18 77.7 °F 73.2 °F 30.02 in Calm     86 % 0.00 in 0 W/m2
00:23 77.7 °F 73.2 °F 30.03 in Calm     86 % 0.00 in 0 W/m2
00:28 77.6 °F 73.1 °F 30.03 in Calm     86 % 0.00 in 0 W/m2
00:33 77.6 °F 73.1 °F 30.03 in Calm     86 % 0.00 in 0 W/m2
00:38 77.5 °F 73.0 °F 30.03 in Calm     86 % 0.00 in 0 W/m2
00:43 77.5 °F 73.0 °F 30.03 in Calm     86 % 0.00 in 0 W/m2
00:48 77.5 °F 73.0 °F 30.03 in Calm     86 % 0.00 in 0 W/m2
00:53 77.5 °F 73.0 °F 30.03 in Calm     86 % 0.00 in 0 W/m2
00:58 77.5 °F 73.0 °F 30.03 in Calm     86 % 0.00 in 0 W/m2
01:03 77.4 °F 72.9 °F 30.03 in Calm     86 % 0.00 in 0 W/m2
01:08 77.4 °F 72.9 °F 30.03 in Calm     86 % 0.00 in 0 W/m2
01:13 77.3 °F 72.8 °F 30.03 in Calm     86 % 0.00 in 0 W/m2
01:18 77.3 °F 72.8 °F 30.03 in Calm     86 % 0.00 in 0 W/m2
01:23 77.2 °F 72.7 °F 30.02 in Calm     86 % 0.00 in 0 W/m2
01:28 77.1 °F 72.6 °F 30.02 in Calm     86 % 0.00 in 0 W/m2
01:33 77.1 °F 72.6 °F 30.02 in Calm     86 % 0.00 in 0 W/m2
01:38 77.0 °F 72.5 °F 30.02 in Calm     86 % 0.00 in 0 W/m2
01:43 76.9 °F 72.7 °F 30.02 in Calm     87 % 0.00 in 0 W/m2
01:48 76.9 °F 72.7 °F 30.02 in Calm     87 % 0.00 in 0 W/m2
01:53 76.8 °F 72.6 °F 30.01 in Calm     87 % 0.00 in 0 W/m2
01:58 76.8 °F 72.6 °F 30.01 in Calm     87 % 0.00 in 0 W/m2
02:03 76.8 °F 72.6 °F 30.01 in Calm     87 % 0.00 in 0 W/m2
02:08 76.7 °F 72.5 °F 30.01 in Calm     87 % 0.00 in 0 W/m2
02:13 76.7 °F 72.5 °F 30.01 in Calm     87 % 0.00 in 0 W/m2
02:18 76.6 °F 72.4 °F 30.01 in Calm     87 % 0.00 in 0 W/m2
02:23 76.5 °F 72.3 °F 30.00 in Calm     87 % 0.00 in 0 W/m2
02:28 76.4 °F 72.2 °F 30.00 in Calm     87 % 0.00 in 0 W/m2
02:33 76.4 °F 72.2 °F 30.00 in Calm     87 % 0.00 in 0 W/m2
02:38 76.3 °F 72.1 °F 30.00 in Calm     87 % 0.00 in 0 W/m2
02:43 76.4 °F 72.2 °F 29.99 in Calm     87 % 0.00 in 0 W/m2
02:48 76.3 °F 72.1 °F 29.99 in Calm     87 % 0.00 in 0 W/m2
02:54 76.2 °F 72.0 °F 29.99 in Calm     87 % 0.00 in 0 W/m2
02:59 76.1 °F 71.9 °F 29.99 in Calm     87 % 0.00 in 0 W/m2
03:04 76.1 °F 71.9 °F 29.99 in Calm     87 % 0.00 in 0 W/m2
03:09 76.0 °F 71.8 °F 29.99 in Calm     87 % 0.00 in 0 W/m2
03:14 76.0 °F 71.8 °F 29.99 in Calm     87 % 0.00 in 0 W/m2
03:19 75.9 °F 71.8 °F 29.99 in Calm     87 % 0.00 in 0 W/m2
03:24 75.9 °F 71.8 °F 29.99 in Calm     87 % 0.00 in 0 W/m2
03:28 75.8 °F 71.7 °F 29.99 in Calm     87 % 0.00 in 0 W/m2
03:29 75.8 °F 71.7 °F 29.99 in Calm     87 % 0.00 in 0 W/m2
03:34 75.7 °F 71.6 °F 29.99 in Calm     87 % 0.00 in 0 W/m2
03:39 75.7 °F 71.6 °F 29.99 in Calm     87 % 0.00 in 0 W/m2
03:44 75.8 °F 71.7 °F 29.99 in Calm     87 % 0.00 in 0 W/m2
03:49 75.7 °F 71.6 °F 29.99 in Calm     87 % 0.00 in 0 W/m2
03:54 75.6 °F 71.5 °F 29.98 in Calm     87 % 0.00 in 0 W/m2
03:59 75.5 °F 71.4 °F 29.98 in Calm     87 % 0.00 in 0 W/m2
04:04 75.5 °F 71.4 °F 29.98 in Calm     87 % 0.00 in 0 W/m2
04:09 75.3 °F 71.2 °F 29.98 in Calm     87 % 0.00 in 0 W/m2
04:14 75.3 °F 71.2 °F 29.98 in Calm     87 % 0.00 in 0 W/m2
04:19 75.3 °F 71.2 °F 29.98 in Calm     87 % 0.00 in 0 W/m2
04:24 75.3 °F 71.2 °F 29.97 in Calm     87 % 0.00 in 0 W/m2
04:29 75.3 °F 71.2 °F 29.97 in Calm     87 % 0.00 in 0 W/m2
04:34 75.2 °F 71.1 °F 29.97 in Calm     87 % 0.00 in 0 W/m2
04:39 75.2 °F 71.1 °F 29.97 in Calm     87 % 0.00 in 0 W/m2
04:44 75.1 °F 71.0 °F 29.97 in Calm     87 % 0.00 in 0 W/m2
04:49 75.0 °F 70.9 °F 29.97 in Calm     87 % 0.00 in 0 W/m2
04:55 74.9 °F 70.8 °F 29.97 in Calm     87 % 0.00 in 0 W/m2
04:56 74.9 °F 70.8 °F 29.97 in Calm     87 % 0.00 in 0 W/m2
05:01 74.9 °F 70.8 °F 29.97 in Calm     87 % 0.00 in 0 W/m2
05:06 74.8 °F 70.7 °F 29.97 in Calm     87 % 0.00 in 0 W/m2
05:11 74.8 °F 70.7 °F 29.96 in Calm     87 % 0.00 in 0 W/m2
05:16 74.8 °F 70.7 °F 29.96 in Calm     87 % 0.00 in 0 W/m2
05:21 74.7 °F 70.6 °F 29.96 in Calm     87 % 0.00 in 0 W/m2
05:26 74.7 °F 70.6 °F 29.96 in Calm     87 % 0.00 in 0 W/m2
05:31 74.6 °F 70.5 °F 29.96 in Calm     87 % 0.00 in 0 W/m2
05:36 74.6 °F 70.5 °F 29.96 in Calm     87 % 0.00 in 0 W/m2
05:41 74.5 °F 70.4 °F 29.96 in Calm     87 % 0.00 in 0 W/m2
05:46 74.6 °F 70.5 °F 29.96 in Calm     87 % 0.00 in 0 W/m2
05:51 74.5 °F 70.7 °F 29.96 in Calm     88 % 0.00 in 0 W/m2
05:56 74.5 °F 70.7 °F 29.96 in Calm     88 % 0.00 in 0 W/m2
06:01 74.4 °F 70.6 °F 29.97 in Calm     88 % 0.00 in 0 W/m2
06:06 74.4 °F 70.6 °F 29.97 in Calm     88 % 0.00 in 0 W/m2
06:11 74.4 °F 70.6 °F 29.98 in Calm     88 % 0.00 in 0 W/m2
06:16 74.4 °F 70.6 °F 29.98 in Calm     88 % 0.00 in 0 W/m2
06:21 74.3 °F 70.5 °F 29.98 in Calm     88 % 0.00 in 0 W/m2
06:26 74.3 °F 70.5 °F 29.98 in Calm     88 % 0.00 in 0 W/m2
06:31 74.2 °F 70.1 °F 29.99 in Calm     87 % 0.00 in 5 W/m2
06:36 74.2 °F 70.1 °F 29.99 in Calm     87 % 0.00 in 9 W/m2
06:41 74.2 °F 70.4 °F 29.99 in Calm     88 % 0.00 in 11 W/m2
06:46 74.3 °F 70.5 °F 29.99 in Calm     88 % 0.00 in 14 W/m2
06:51 74.3 °F 70.5 °F 29.99 in Calm     88 % 0.00 in 18 W/m2
06:56 74.3 °F 70.5 °F 29.99 in Calm     88 % 0.00 in 19 W/m2
07:01 74.3 °F 70.5 °F 29.99 in Calm     88 % 0.00 in 23 W/m2
07:06 74.3 °F 70.5 °F 29.99 in Calm     88 % 0.00 in 26 W/m2
07:11 74.4 °F 70.6 °F 30.00 in Calm     88 % 0.00 in 70 W/m2
07:16 74.5 °F 70.7 °F 30.00 in Calm     88 % 0.00 in 83 W/m2
07:22 74.8 °F 71.0 °F 30.00 in Calm     88 % 0.00 in 97 W/m2
07:27 74.9 °F 71.1 °F 30.00 in Calm     88 % 0.00 in 113 W/m2
07:32 75.1 °F 71.3 °F 30.00 in Calm     88 % 0.00 in 130 W/m2
07:37 75.3 °F 71.5 °F 30.00 in Calm   1.0 mph 88 % 0.00 in 146 W/m2
07:42 75.5 °F 71.7 °F 30.00 in Calm   1.0 mph 88 % 0.00 in 162 W/m2
07:47 75.7 °F 71.6 °F 30.00 in Calm   3.0 mph 87 % 0.00 in 183 W/m2
07:52 75.9 °F 71.8 °F 30.00 in NNW 1.0 mph 3.0 mph 87 % 0.00 in 197 W/m2
07:57 76.4 °F 72.2 °F 30.00 in NNW 1.0 mph 3.0 mph 87 % 0.00 in 206 W/m2
08:02 76.8 °F 72.3 °F 30.00 in Calm   2.0 mph 86 % 0.00 in 223 W/m2
08:07 77.2 °F 72.3 °F 29.99 in Calm   1.0 mph 85 % 0.00 in 237 W/m2
08:12 77.5 °F 72.3 °F 29.99 in Calm   3.0 mph 84 % 0.00 in 260 W/m2
08:18 77.8 °F 72.6 °F 29.99 in WNW 2.0 mph 3.0 mph 84 % 0.00 in 274 W/m2
08:22 78.2 °F 72.6 °F 29.99 in North 1.0 mph 3.0 mph 83 % 0.00 in 292 W/m2
08:28 78.7 °F 73.1 °F 29.99 in North 1.0 mph 2.0 mph 83 % 0.00 in 309 W/m2
08:33 79.3 °F 73.3 °F 29.99 in North 2.0 mph 3.0 mph 82 % 0.00 in 323 W/m2
08:38 79.5 °F 72.8 °F 29.99 in North 1.0 mph 4.0 mph 80 % 0.00 in 343 W/m2
08:42 80.0 °F 73.6 °F 29.99 in North 2.0 mph 4.0 mph 81 % 0.00 in 357 W/m2
Ellisville, Mississippi, USA
Compliments of Weather Underground - 4.5 mb